Time;durP1;ratioP1;P1;durP2;ratioP2;P2;SDS_P1;SDS_P2;PMS_P1;PMS_P2;Temp;Humidity;BMP_temperature;BMP_pressure;BME280_temperature;BME280_humidity;BME280_pressure;Samples;Min_cycle;Max_cycle;Signal;HPM_P1;HPM_P2
2021/04/02 00:01:29;;;;;;;28.23;20.08;;;;;;;;;;5097811;28;20190;-55
2021/04/02 00:03:56;;;;;;;48.42;35.78;;;;;;;;;;5097998;28;20206;-57
2021/04/02 00:06:23;;;;;;;8.15;6.18;;;;;;;;;;5097264;28;20195;-55
2021/04/02 00:08:52;;;;;;;11.20;7.15;;;;;;;;;;5097970;28;20244;-50
2021/04/02 00:11:19;;;;;;;8.52;6.03;;;;;;;;;;5097381;28;20218;-52
2021/04/02 00:13:47;;;;;;;14.25;7.45;;;;;;;;;;5098190;28;20194;-54
2021/04/02 00:16:23;;;;;;;9.60;5.90;;;;;;;;;;5098091;28;20194;-50
2021/04/02 00:18:52;;;;;;;16.38;5.85;;;;;;;;;;5097971;28;20221;-55
2021/04/02 00:21:20;;;;;;;11.40;6.43;;;;;;;;;;5097487;28;20240;-51
2021/04/02 00:23:51;;;;;;;11.98;6.65;;;;;;;;;;5098293;28;20205;-58
2021/04/02 00:26:19;;;;;;;8.43;5.75;;;;;;;;;;5097887;28;20258;-54
2021/04/02 00:28:46;;;;;;;11.73;7.22;;;;;;;;;;5097328;28;20198;-55
2021/04/02 00:31:13;;;;;;;10.00;6.22;;;;;;;;;;5097630;28;20205;-51
2021/04/02 00:33:40;;;;;;;11.32;7.28;;;;;;;;;;5097138;28;20210;-53
2021/04/02 00:36:08;;;;;;;16.05;8.00;;;;;;;;;;5097041;28;20217;-52
2021/04/02 00:38:35;;;;;;;10.38;7.47;;;;;;;;;;5097330;28;20206;-54
2021/04/02 00:41:03;;;;;;;10.02;7.00;;;;;;;;;;5096668;28;20194;-53
2021/04/02 00:46:34;;;;;;;11.35;6.57;;;;;;;;;;5096354;28;20207;-47
2021/04/02 00:49:01;;;;;;;9.48;5.82;;;;;;;;;;5092202;28;20218;-47
2021/04/02 00:51:31;;;;;;;9.75;6.13;;;;;;;;;;5096339;28;20226;-47
2021/04/02 00:53:58;;;;;;;12.52;6.00;;;;;;;;;;5095312;28;20260;-50
2021/04/02 00:56:26;;;;;;;9.73;6.78;;;;;;;;;;5096503;28;20198;-51
2021/04/02 00:58:53;;;;;;;15.55;7.50;;;;;;;;;;5096504;28;20219;-55
2021/04/02 01:01:20;;;;;;;12.25;7.90;;;;;;;;;;5095904;28;20401;-60
2021/04/02 01:03:48;;;;;;;10.40;7.25;;;;;;;;;;5096750;28;20201;-52
2021/04/02 01:06:16;;;;;;;12.05;6.72;;;;;;;;;;5095845;28;20221;-53
2021/04/02 01:08:44;;;;;;;11.25;7.40;;;;;;;;;;5078576;28;20197;-52
2021/04/02 01:11:36;;;;;;;13.13;7.07;;;;;;;;;;5096616;28;20251;-49
2021/04/02 01:14:03;;;;;;;12.10;7.75;;;;;;;;;;5109329;28;20323;-50
2021/04/02 01:16:30;;;;;;;10.63;8.27;;;;;;;;;;5116763;28;20213;-50
2021/04/02 01:19:02;;;;;;;13.75;8.55;;;;;;;;;;5116784;28;20209;-47
2021/04/02 01:21:30;;;;;;;12.80;8.50;;;;;;;;;;5116990;28;20227;-54
2021/04/02 01:24:11;;;;;;;31.08;11.02;;;;;;;;;;5116539;28;20520;-54
2021/04/02 01:26:58;;;;;;;16.42;8.45;;;;;;;;;;5116005;28;20193;-55
2021/04/02 01:29:27;;;;;;;14.55;9.15;;;;;;;;;;5116538;28;20197;-50
2021/04/02 01:31:55;;;;;;;15.20;8.88;;;;;;;;;;5116619;28;20229;-48
2021/04/02 01:34:26;;;;;;;18.05;8.98;;;;;;;;;;5116981;28;20312;-53
2021/04/02 01:36:54;;;;;;;10.98;7.60;;;;;;;;;;5116590;28;20201;-55
2021/04/02 01:39:22;;;;;;;13.32;8.43;;;;;;;;;;5116260;28;20224;-54
2021/04/02 01:41:52;;;;;;;13.95;8.15;;;;;;;;;;5116090;28;20216;-51
2021/04/02 01:44:19;;;;;;;12.25;8.52;;;;;;;;;;5115325;28;20225;-52
2021/04/02 01:46:51;;;;;;;15.52;8.02;;;;;;;;;;5116704;28;20217;-59
2021/04/02 01:49:18;;;;;;;14.98;9.18;;;;;;;;;;5116363;28;20207;-49
2021/04/02 01:51:48;;;;;;;15.82;7.78;;;;;;;;;;5116249;28;20217;-52
2021/04/02 01:54:15;;;;;;;12.60;8.13;;;;;;;;;;5116647;28;20196;-49
2021/04/02 01:56:42;;;;;;;14.27;7.82;;;;;;;;;;5116684;28;20197;-57
2021/04/02 01:59:22;;;;;;;12.95;8.05;;;;;;;;;;5116171;28;20205;-57
2021/04/02 02:01:51;;;;;;;13.30;8.00;;;;;;;;;;5116008;28;20189;-55
2021/04/02 02:04:20;;;;;;;15.35;8.82;;;;;;;;;;5115612;28;20197;-55
2021/04/02 02:07:03;;;;;;;27.58;8.88;;;;;;;;;;5129592;28;20208;-53
2021/04/02 02:09:31;;;;;;;14.68;9.02;;;;;;;;;;5116265;28;20189;-58
2021/04/02 02:11:59;;;;;;;14.73;8.95;;;;;;;;;;5115739;28;20217;-53
2021/04/02 02:14:39;;;;;;;13.15;8.85;;;;;;;;;;5115582;28;20244;-54
2021/04/02 02:17:08;;;;;;;14.48;9.23;;;;;;;;;;5116026;28;20265;-51
2021/04/02 02:19:37;;;;;;;13.40;8.73;;;;;;;;;;5115549;28;20205;-55
2021/04/02 02:22:18;;;;;;;13.90;9.57;;;;;;;;;;5115987;28;20223;-50
2021/04/02 02:24:46;;;;;;;14.32;9.35;;;;;;;;;;5113909;28;20229;-50
2021/04/02 02:27:13;;;;;;;18.52;11.75;;;;;;;;;;5115753;28;20197;-51
2021/04/02 02:29:43;;;;;;;13.68;9.75;;;;;;;;;;5116416;28;20209;-54
2021/04/02 02:32:10;;;;;;;17.55;10.93;;;;;;;;;;5116090;28;20293;-53
2021/04/02 02:34:38;;;;;;;14.00;9.68;;;;;;;;;;5098651;28;20197;-59
2021/04/02 02:37:06;;;;;;;17.75;10.07;;;;;;;;;;5115447;28;20193;-54
2021/04/02 02:39:33;;;;;;;14.45;10.95;;;;;;;;;;5115593;28;20204;-56
2021/04/02 02:42:03;;;;;;;16.65;11.02;;;;;;;;;;5116174;28;20314;-53
2021/04/02 02:44:30;;;;;;;16.20;11.57;;;;;;;;;;5115931;28;20190;-56
2021/04/02 02:46:57;;;;;;;19.48;13.35;;;;;;;;;;5116442;28;20182;-53
2021/04/02 02:49:29;;;;;;;18.90;12.07;;;;;;;;;;5116000;28;20256;-57
2021/04/02 02:51:57;;;;;;;17.80;11.85;;;;;;;;;;5116330;28;20231;-52
2021/04/02 02:54:24;;;;;;;20.02;14.32;;;;;;;;;;5115806;28;20205;-51
2021/04/02 02:57:17;;;;;;;18.30;12.48;;;;;;;;;;5118758;28;20228;-54
2021/04/02 02:59:44;;;;;;;18.65;12.02;;;;;;;;;;5117638;28;20237;-52
2021/04/02 03:02:11;;;;;;;16.40;12.00;;;;;;;;;;5119687;28;20264;-51
2021/04/02 03:04:52;;;;;;;17.75;12.80;;;;;;;;;;5119387;28;20231;-53
2021/04/02 03:07:20;;;;;;;20.80;13.27;;;;;;;;;;5119502;28;20193;-52
2021/04/02 03:09:47;;;;;;;19.90;12.65;;;;;;;;;;5119525;28;20189;-50
2021/04/02 03:12:46;;;;;;;19.52;12.80;;;;;;;;;;5119441;28;20221;-48
2021/04/02 03:15:15;;;;;;;15.40;12.50;;;;;;;;;;5119236;28;20216;-52
2021/04/02 03:17:44;;;;;;;22.02;13.45;;;;;;;;;;5119384;28;20196;-46
2021/04/02 03:20:21;;;;;;;18.88;13.05;;;;;;;;;;5118905;28;20276;-48
2021/04/02 03:22:54;;;;;;;23.30;11.77;;;;;;;;;;5103967;28;20221;-58
2021/04/02 03:25:22;;;;;;;23.63;13.70;;;;;;;;;;5098171;28;20232;-55
2021/04/02 03:27:58;;;;;;;15.27;12.57;;;;;;;;;;5098739;28;20216;-50
2021/04/02 03:30:28;;;;;;;18.05;13.95;;;;;;;;;;5098536;28;20236;-59
2021/04/02 03:32:57;;;;;;;24.02;13.25;;;;;;;;;;5099236;28;20201;-55
2021/04/02 03:35:36;;;;;;;17.83;13.20;;;;;;;;;;5098778;28;20206;-51
2021/04/02 03:38:05;;;;;;;17.60;13.80;;;;;;;;;;5098649;28;20209;-52
2021/04/02 03:40:35;;;;;;;20.83;12.98;;;;;;;;;;5099008;28;20193;-53
2021/04/02 03:43:20;;;;;;;18.67;12.65;;;;;;;;;;5098799;28;20205;-55
2021/04/02 03:45:49;;;;;;;22.88;13.23;;;;;;;;;;5109457;28;20276;-54
2021/04/02 03:48:16;;;;;;;17.90;13.48;;;;;;;;;;5118611;28;20209;-54
2021/04/02 03:51:09;;;;;;;16.02;12.15;;;;;;;;;;5117968;28;20367;-53
2021/04/02 03:53:40;;;;;;;23.73;13.20;;;;;;;;;;5118625;28;20229;-58
2021/04/02 03:56:13;;;;;;;22.48;12.43;;;;;;;;;;5118655;28;20208;-58
2021/04/02 03:59:05;;;;;;;16.52;11.50;;;;;;;;;;5118439;28;20214;-54
2021/04/02 04:01:33;;;;;;;13.90;10.35;;;;;;;;;;5118371;28;20201;-51
2021/04/02 04:04:03;;;;;;;17.58;11.60;;;;;;;;;;5118070;28;20220;-54
2021/04/02 04:06:31;;;;;;;14.45;10.95;;;;;;;;;;5118251;28;20220;-54
2021/04/02 04:09:01;;;;;;;18.23;11.70;;;;;;;;;;5116860;28;20213;-55
2021/04/02 04:11:31;;;;;;;15.38;10.35;;;;;;;;;;5117792;28;20251;-55
2021/04/02 04:14:02;;;;;;;19.55;10.73;;;;;;;;;;5114214;28;20245;-53
2021/04/02 04:16:29;;;;;;;20.30;12.27;;;;;;;;;;5118113;28;20237;-55
2021/04/02 04:18:59;;;;;;;13.52;10.40;;;;;;;;;;5117723;28;20213;-56
2021/04/02 04:21:28;;;;;;;15.95;11.18;;;;;;;;;;5112140;28;20192;-51
2021/04/02 04:23:56;;;;;;;17.33;10.45;;;;;;;;;;5118094;28;20185;-55
2021/04/02 04:26:27;;;;;;;17.15;11.98;;;;;;;;;;5117624;28;20185;-48
2021/04/02 04:29:01;;;;;;;21.00;14.05;;;;;;;;;;5118114;28;20196;-53
2021/04/02 04:31:29;;;;;;;18.20;13.48;;;;;;;;;;5117458;28;20223;-52
2021/04/02 04:33:57;;;;;;;17.73;13.52;;;;;;;;;;5122572;28;20212;-53
2021/04/02 04:36:24;;;;;;;19.48;13.45;;;;;;;;;;5117746;28;20208;-56
2021/04/02 04:38:52;;;;;;;19.45;14.10;;;;;;;;;;5117635;28;20240;-55
2021/04/02 04:41:19;;;;;;;22.80;14.95;;;;;;;;;;5117658;28;20208;-58
2021/04/02 04:43:47;;;;;;;22.67;13.10;;;;;;;;;;5117542;28;20189;-49
2021/04/02 04:46:14;;;;;;;24.85;15.68;;;;;;;;;;5117679;28;20241;-49
2021/04/02 04:48:43;;;;;;;20.35;14.43;;;;;;;;;;5118027;28;20255;-49
2021/04/02 04:51:10;;;;;;;19.35;13.60;;;;;;;;;;5117471;28;20249;-48
2021/04/02 04:53:37;;;;;;;20.25;12.77;;;;;;;;;;5117571;28;20197;-56
2021/04/02 04:56:06;;;;;;;18.65;13.80;;;;;;;;;;5117117;28;20194;-53
2021/04/02 04:58:52;;;;;;;17.50;11.35;;;;;;;;;;5114906;28;20209;-54
2021/04/02 05:01:21;;;;;;;20.15;12.18;;;;;;;;;;5117166;28;20315;-59
2021/04/02 05:03:48;;;;;;;21.08;11.50;;;;;;;;;;5117131;28;20201;-55
2021/04/02 05:06:16;;;;;;;19.27;11.77;;;;;;;;;;5117365;28;20201;-56
2021/04/02 05:08:43;;;;;;;21.50;12.75;;;;;;;;;;5103938;28;20193;-51
2021/04/02 05:11:13;;;;;;;17.13;11.65;;;;;;;;;;5117365;28;20224;-52
2021/04/02 05:13:42;;;;;;;15.50;11.73;;;;;;;;;;5102236;28;20206;-49
2021/04/02 05:16:08;;;;;;;16.08;11.80;;;;;;;;;;5098256;28;20213;-55
2021/04/02 05:18:45;;;;;;;17.30;11.13;;;;;;;;;;5115586;28;20193;-47
2021/04/02 05:21:12;;;;;;;19.98;12.77;;;;;;;;;;5117368;28;20205;-54
2021/04/02 05:23:39;;;;;;;23.90;13.20;;;;;;;;;;5114741;28;20340;-49
2021/04/02 05:26:38;;;;;;;24.35;11.25;;;;;;;;;;5118132;28;20459;-56
2021/04/02 05:29:05;;;;;;;20.08;12.90;;;;;;;;;;5116926;28;20201;-51
2021/04/02 05:31:32;;;;;;;25.25;13.23;;;;;;;;;;5117135;28;20217;-55
2021/04/02 05:34:03;;;;;;;20.75;13.82;;;;;;;;;;5116731;28;20292;-52
2021/04/02 05:36:30;;;;;;;20.92;13.85;;;;;;;;;;5111048;28;20193;-53
2021/04/02 05:38:57;;;;;;;24.13;12.95;;;;;;;;;;5114405;28;20279;-55
2021/04/02 05:41:46;;;;;;;19.75;12.65;;;;;;;;;;5095837;28;20178;-52
2021/04/02 05:44:17;;;;;;;20.30;12.05;;;;;;;;;;5107948;28;20213;-49
2021/04/02 05:46:45;;;;;;;19.15;12.18;;;;;;;;;;5076339;28;20514;-53
2021/04/02 05:49:34;;;;;;;21.10;12.88;;;;;;;;;;5076092;28;20207;-53
2021/04/02 05:52:02;;;;;;;21.20;13.48;;;;;;;;;;5076275;28;20242;-52
2021/04/02 05:54:30;;;;;;;20.10;11.75;;;;;;;;;;5085756;28;20186;-54
2021/04/02 05:57:24;;;;;;;24.85;12.30;;;;;;;;;;5096939;28;20202;-49
2021/04/02 05:59:55;;;;;;;22.45;13.50;;;;;;;;;;5092601;28;20263;-52
2021/04/02 06:02:22;;;;;;;15.75;10.73;;;;;;;;;;5116229;28;20349;-51
2021/04/02 06:04:52;;;;;;;22.75;12.13;;;;;;;;;;5116016;28;20276;-57
2021/04/02 06:07:20;;;;;;;26.45;12.80;;;;;;;;;;5116624;28;20193;-51
2021/04/02 06:09:46;;;;;;;20.80;14.18;;;;;;;;;;5116495;28;20201;-59
2021/04/02 06:12:27;;;;;;;22.38;12.48;;;;;;;;;;5117056;28;20229;-56
2021/04/02 06:14:56;;;;;;;16.92;12.38;;;;;;;;;;5100767;28;20194;-53
2021/04/02 06:17:24;;;;;;;18.58;13.35;;;;;;;;;;5096841;28;20258;-52
2021/04/02 06:20:03;;;;;;;18.83;11.40;;;;;;;;;;5096746;28;20205;-51
2021/04/02 06:22:31;;;;;;;21.42;13.27;;;;;;;;;;5096405;28;20273;-56
2021/04/02 06:25:03;;;;;;;20.35;11.88;;;;;;;;;;5095742;28;20190;-54
2021/04/02 06:27:31;;;;;;;21.33;12.05;;;;;;;;;;5095186;28;20225;-56
2021/04/02 06:30:03;;;;;;;22.10;13.73;;;;;;;;;;5077948;28;20193;-48
2021/04/02 06:32:44;;;;;;;27.15;12.52;;;;;;;;;;5095730;28;20257;-55
2021/04/02 06:35:11;;;;;;;24.40;11.65;;;;;;;;;;5110107;28;20224;-53
2021/04/02 06:37:39;;;;;;;18.40;12.35;;;;;;;;;;5115967;28;20197;-57
2021/04/02 06:40:15;;;;;;;15.20;11.15;;;;;;;;;;5116457;28;20197;-53
2021/04/02 06:42:44;;;;;;;19.95;11.80;;;;;;;;;;5115615;28;20185;-53
2021/04/02 06:45:43;;;;;;;18.73;11.57;;;;;;;;;;5115899;28;20213;-53
2021/04/02 06:48:13;;;;;;;20.17;11.95;;;;;;;;;;5115910;28;20377;-53
2021/04/02 06:50:41;;;;;;;16.52;12.30;;;;;;;;;;5115543;28;20193;-58
2021/04/02 06:53:21;;;;;;;16.98;11.98;;;;;;;;;;5115295;28;20294;-53
2021/04/02 06:55:48;;;;;;;18.90;11.85;;;;;;;;;;5115755;28;20250;-56
2021/04/02 06:58:15;;;;;;;17.63;12.90;;;;;;;;;;5115504;28;20193;-53
2021/04/02 07:03:46;;;;;;;23.80;13.32;;;;;;;;;;5113503;28;20219;-48
2021/04/02 07:06:15;;;;;;;33.20;16.48;;;;;;;;;;5115851;28;20544;-51
2021/04/02 07:08:57;;;;;;;26.40;15.05;;;;;;;;;;5116054;28;20372;-49
2021/04/02 07:11:24;;;;;;;20.95;13.30;;;;;;;;;;5114550;28;20235;-52
2021/04/02 07:13:52;;;;;;;25.02;15.85;;;;;;;;;;5115899;28;20194;-52
2021/04/02 07:16:20;;;;;;;23.50;15.00;;;;;;;;;;5116213;28;20245;-51
2021/04/02 07:18:47;;;;;;;24.13;14.25;;;;;;;;;;5115895;28;20205;-47
2021/04/02 07:21:14;;;;;;;23.67;15.93;;;;;;;;;;5113828;28;20253;-52
2021/04/02 07:23:43;;;;;;;28.75;17.38;;;;;;;;;;5115137;28;20282;-54
2021/04/02 07:26:11;;;;;;;26.67;15.23;;;;;;;;;;5098908;28;20206;-56
2021/04/02 07:28:40;;;;;;;22.13;15.52;;;;;;;;;;5098188;28;20210;-52
2021/04/02 07:31:32;;;;;;;25.15;14.80;;;;;;;;;;5113901;28;20236;-58
2021/04/02 07:34:00;;;;;;;27.88;16.13;;;;;;;;;;5108868;28;20206;-49
2021/04/02 07:36:31;;;;;;;25.00;15.35;;;;;;;;;;5115272;28;20201;-53
2021/04/02 07:39:09;;;;;;;26.33;16.45;;;;;;;;;;5095494;28;20205;-53
2021/04/02 07:41:56;;;;;;;28.02;16.55;;;;;;;;;;5102731;28;20202;-57
2021/04/02 07:44:23;;;;;;;26.35;16.70;;;;;;;;;;5109840;28;20200;-54
2021/04/02 07:47:14;;;;;;;40.83;16.65;;;;;;;;;;5120314;28;20202;-51
2021/04/02 07:49:42;;;;;;;25.85;16.67;;;;;;;;;;5123272;28;20189;-52
2021/04/02 07:52:13;;;;;;;26.50;15.70;;;;;;;;;;5139508;28;20216;-55
2021/04/02 07:55:06;;;;;;;22.23;16.40;;;;;;;;;;5109608;28;20206;-51
2021/04/02 07:57:48;;;;;;;26.63;15.70;;;;;;;;;;5106261;28;20216;-52
2021/04/02 08:00:15;;;;;;;22.60;13.57;;;;;;;;;;5115301;28;20198;-56
2021/04/02 08:02:43;;;;;;;19.70;14.32;;;;;;;;;;5108484;28;20224;-55
2021/04/02 08:05:19;;;;;;;25.35;14.85;;;;;;;;;;5117325;28;20208;-56
2021/04/02 08:07:59;;;;;;;22.60;14.40;;;;;;;;;;5117923;28;20203;-51
2021/04/02 08:10:27;;;;;;;29.42;14.57;;;;;;;;;;5118457;28;20196;-55
2021/04/02 08:15:40;;;;;;;19.80;14.30;;;;;;;;;;5107197;28;20209;-57
2021/04/02 08:18:19;;;;;;;21.70;14.43;;;;;;;;;;5098351;28;20209;-56
2021/04/02 08:21:13;;;;;;;21.55;14.15;;;;;;;;;;5118575;28;20220;-53
2021/04/02 08:23:41;;;;;;;16.67;11.50;;;;;;;;;;5117880;28;20216;-54
2021/04/02 08:26:23;;;;;;;22.10;13.68;;;;;;;;;;5117388;28;20212;-53
2021/04/02 08:28:51;;;;;;;20.40;11.88;;;;;;;;;;5109450;28;20242;-56
2021/04/02 08:31:18;;;;;;;17.70;12.00;;;;;;;;;;5117990;28;20239;-47
2021/04/02 08:34:10;;;;;;;18.25;10.25;;;;;;;;;;5117842;28;20201;-58
2021/04/02 08:36:38;;;;;;;16.92;11.25;;;;;;;;;;5117719;28;20221;-58
2021/04/02 08:39:05;;;;;;;16.35;9.77;;;;;;;;;;5117845;28;20193;-47
2021/04/02 08:42:01;;;;;;;17.65;10.40;;;;;;;;;;5117878;28;20220;-53
2021/04/02 08:44:32;;;;;;;19.27;11.10;;;;;;;;;;5116998;28;20229;-51
2021/04/02 08:47:01;;;;;;;18.20;10.65;;;;;;;;;;5117996;28;20236;-52
2021/04/02 08:49:37;;;;;;;20.58;11.90;;;;;;;;;;5117438;28;20201;-57
2021/04/02 08:52:07;;;;;;;12.38;10.43;;;;;;;;;;5117255;28;20216;-52
2021/04/02 08:54:34;;;;;;;15.88;9.10;;;;;;;;;;5116009;28;20194;-49
2021/04/02 08:57:09;;;;;;;17.95;7.72;;;;;;;;;;5117234;28;20255;-50
2021/04/02 08:59:38;;;;;;;18.13;6.82;;;;;;;;;;5116997;28;20196;-54
2021/04/02 09:02:06;;;;;;;13.55;6.88;;;;;;;;;;5116248;28;20190;-52
2021/04/02 09:04:38;;;;;;;10.60;5.43;;;;;;;;;;5116752;28;20278;-51
2021/04/02 09:07:06;;;;;;;10.73;6.68;;;;;;;;;;5127648;28;20220;-53
2021/04/02 09:09:33;;;;;;;15.00;6.38;;;;;;;;;;5120106;28;20208;-58
2021/04/02 09:15:05;;;;;;;13.05;6.80;;;;;;;;;;5113862;28;20227;-54
2021/04/02 09:17:32;;;;;;;12.85;6.70;;;;;;;;;;5115503;28;21107;-45
2021/04/02 09:20:17;;;;;;;16.38;7.40;;;;;;;;;;5115074;28;20213;-54
2021/04/02 09:22:44;;;;;;;13.00;8.77;;;;;;;;;;5107366;28;20225;-54
2021/04/02 09:25:13;;;;;;;15.48;9.13;;;;;;;;;;5116281;28;20201;-55
2021/04/02 09:27:40;;;;;;;13.55;7.65;;;;;;;;;;5115263;28;20369;-53
2021/04/02 09:30:09;;;;;;;13.50;8.23;;;;;;;;;;5116346;28;20201;-51
2021/04/02 09:32:40;;;;;;;11.38;7.55;;;;;;;;;;5115699;28;20240;-53
2021/04/02 09:35:08;;;;;;;12.30;7.50;;;;;;;;;;5102455;28;20267;-47
2021/04/02 09:37:35;;;;;;;16.48;8.50;;;;;;;;;;5115633;28;20279;-55
2021/04/02 09:40:04;;;;;;;12.30;7.45;;;;;;;;;;5115718;28;20204;-56
2021/04/02 09:42:31;;;;;;;12.93;7.53;;;;;;;;;;5115610;28;20185;-53
2021/04/02 09:45:02;;;;;;;13.52;7.15;;;;;;;;;;5115268;28;20845;-50
2021/04/02 09:47:29;;;;;;;13.03;7.60;;;;;;;;;;5115494;28;20198;-46
2021/04/02 09:49:56;;;;;;;14.97;8.10;;;;;;;;;;5115345;28;20455;-46
2021/04/02 09:52:23;;;;;;;16.23;7.67;;;;;;;;;;5115254;28;20471;-46
2021/04/02 09:54:52;;;;;;;12.23;7.30;;;;;;;;;;5115745;28;20467;-53
2021/04/02 09:57:24;;;;;;;13.52;7.82;;;;;;;;;;5113942;28;20467;-54
2021/04/02 09:59:52;;;;;;;14.77;8.70;;;;;;;;;;5115229;28;20199;-59
2021/04/02 10:02:20;;;;;;;16.20;8.70;;;;;;;;;;5115098;28;20452;-56
2021/04/02 10:05:05;;;;;;;16.03;8.87;;;;;;;;;;5114654;28;20449;-60
2021/04/02 10:07:35;;;;;;;14.40;9.13;;;;;;;;;;5114713;28;20454;-52
2021/04/02 10:10:04;;;;;;;16.60;9.53;;;;;;;;;;5115157;28;20455;-56
2021/04/02 10:12:42;;;;;;;15.50;9.30;;;;;;;;;;5114745;28;20522;-59
2021/04/02 10:15:09;;;;;;;16.53;8.60;;;;;;;;;;5114662;28;20665;-57
2021/04/02 10:17:37;;;;;;;19.73;8.97;;;;;;;;;;5095569;28;20532;-57
2021/04/02 10:20:09;;;;;;;19.50;8.40;;;;;;;;;;5095112;28;20527;-54
2021/04/02 10:22:36;;;;;;;21.23;8.93;;;;;;;;;;5108694;28;20479;-52
2021/04/02 10:25:04;;;;;;;17.17;8.97;;;;;;;;;;5115181;28;20473;-58
2021/04/02 10:28:02;;;;;;;17.33;9.53;;;;;;;;;;5115440;28;20420;-52
2021/04/02 10:30:31;;;;;;;12.43;7.90;;;;;;;;;;5115911;28;20531;-51
2021/04/02 10:33:01;;;;;;;16.27;8.10;;;;;;;;;;5115295;28;20478;-55
2021/04/02 10:35:45;;;;;;;13.87;9.00;;;;;;;;;;5115746;28;20431;-52
2021/04/02 10:38:15;;;;;;;15.40;8.30;;;;;;;;;;5098773;28;20521;-57
2021/04/02 10:40:42;;;;;;;11.13;7.60;;;;;;;;;;5115509;28;20469;-52
2021/04/02 10:43:14;;;;;;;11.43;6.87;;;;;;;;;;5115244;28;20469;-52
2021/04/02 10:45:41;;;;;;;17.17;9.00;;;;;;;;;;5113038;28;20487;-56
2021/04/02 10:48:09;;;;;;;11.87;7.30;;;;;;;;;;5115332;28;20439;-56
2021/04/02 10:50:45;;;;;;;11.60;7.47;;;;;;;;;;5112282;28;20514;-56
2021/04/02 10:53:15;;;;;;;14.23;7.80;;;;;;;;;;5113120;28;20495;-54
2021/04/02 10:55:42;;;;;;;12.38;7.65;;;;;;;;;;5114567;28;20197;-49
2021/04/02 11:01:23;;;;;;;16.70;8.30;;;;;;;;;;5103261;28;20231;-56
2021/04/02 11:03:52;;;;;;;13.47;8.90;;;;;;;;;;5107761;28;20258;-58
2021/04/02 11:06:23;;;;;;;15.53;8.10;;;;;;;;;;5115121;28;20463;-52
2021/04/02 11:11:46;;;;;;;13.30;7.57;;;;;;;;;;5106712;28;20490;-54
2021/04/02 11:14:31;;;;;;;12.83;6.77;;;;;;;;;;5110796;28;20216;-56
2021/04/02 11:17:01;;;;;;;16.25;8.20;;;;;;;;;;5102236;28;20459;-55
2021/04/02 11:19:29;;;;;;;13.43;6.57;;;;;;;;;;5117979;28;20216;-50
2021/04/02 11:21:56;;;;;;;10.73;7.03;;;;;;;;;;5112711;28;20199;-50
2021/04/02 11:24:26;;;;;;;11.32;5.93;;;;;;;;;;5114750;28;20179;-56
2021/04/02 11:26:54;;;;;;;11.55;6.75;;;;;;;;;;5112871;28;20209;-50
2021/04/02 11:29:21;;;;;;;12.40;6.28;;;;;;;;;;5110480;28;20201;-51
2021/04/02 11:31:49;;;;;;;13.40;7.97;;;;;;;;;;5118577;28;20229;-54
2021/04/02 11:34:17;;;;;;;10.85;6.82;;;;;;;;;;5119076;28;20189;-57
2021/04/02 11:36:51;;;;;;;8.85;6.03;;;;;;;;;;5115720;28;20209;-59
2021/04/02 11:39:24;;;;;;;11.27;6.55;;;;;;;;;;5108581;28;20197;-49
2021/04/02 11:41:52;;;;;;;13.60;7.00;;;;;;;;;;5118095;28;20205;-57
2021/04/02 11:44:19;;;;;;;19.65;8.68;;;;;;;;;;5118247;28;20217;-53
2021/04/02 11:47:17;;;;;;;10.40;7.85;;;;;;;;;;5118127;28;20227;-60
2021/04/02 11:49:46;;;;;;;12.05;6.40;;;;;;;;;;5113346;28;20221;-51
2021/04/02 11:52:13;;;;;;;12.07;8.27;;;;;;;;;;5112206;28;20240;-56
2021/04/02 11:54:51;;;;;;;14.63;7.57;;;;;;;;;;5102678;28;20209;-52
2021/04/02 11:57:19;;;;;;;9.27;6.50;;;;;;;;;;5117321;28;20243;-54
2021/04/02 11:59:55;;;;;;;10.45;6.03;;;;;;;;;;5118389;28;20201;-53
2021/04/02 12:02:22;;;;;;;10.55;6.82;;;;;;;;;;5113771;28;20253;-56
2021/04/02 12:04:49;;;;;;;13.38;6.25;;;;;;;;;;5098248;28;20359;-49
2021/04/02 12:07:17;;;;;;;9.82;5.95;;;;;;;;;;5117758;28;20185;-53
2021/04/02 12:09:44;;;;;;;8.52;6.32;;;;;;;;;;5109966;28;20275;-57
2021/04/02 12:12:12;;;;;;;10.85;6.60;;;;;;;;;;5097522;28;20226;-50
2021/04/02 12:14:56;;;;;;;12.68;6.80;;;;;;;;;;5116706;28;20346;-53
2021/04/02 12:17:23;;;;;;;15.35;7.60;;;;;;;;;;5117533;28;20201;-58
2021/04/02 12:19:51;;;;;;;13.52;8.63;;;;;;;;;;5117991;28;20185;-58
2021/04/02 12:22:33;;;;;;;23.08;12.50;;;;;;;;;;5117743;28;20269;-56
2021/04/02 12:25:03;;;;;;;22.92;14.77;;;;;;;;;;5117892;28;20213;-57
2021/04/02 12:27:33;;;;;;;21.23;14.80;;;;;;;;;;5117828;28;20209;-57
2021/04/02 12:30:06;;;;;;;22.30;15.35;;;;;;;;;;5107015;28;20217;-53
2021/04/02 12:32:33;;;;;;;26.92;16.85;;;;;;;;;;5117892;28;20237;-55
2021/04/02 12:35:02;;;;;;;29.23;20.08;;;;;;;;;;5117516;28;20298;-49
2021/04/02 12:37:40;;;;;;;29.15;19.30;;;;;;;;;;5097904;28;20323;-53
2021/04/02 12:40:10;;;;;;;56.05;30.02;;;;;;;;;;5103889;28;20209;-54
2021/04/02 12:42:36;;;;;;;39.42;26.23;;;;;;;;;;5111828;28;20614;-57
2021/04/02 12:45:29;;;;;;;36.70;24.48;;;;;;;;;;5117582;28;20189;-52
2021/04/02 12:47:58;;;;;;;38.47;22.88;;;;;;;;;;5117136;28;20230;-56
2021/04/02 12:50:27;;;;;;;38.95;21.60;;;;;;;;;;5106011;28;20214;-53
2021/04/02 12:53:24;;;;;;;36.95;21.48;;;;;;;;;;5097139;28;20222;-50
2021/04/02 12:55:52;;;;;;;37.10;23.20;;;;;;;;;;5115403;28;20217;-54
2021/04/02 12:58:21;;;;;;;43.75;26.35;;;;;;;;;;5117015;28;20200;-56
2021/04/02 13:01:21;;;;;;;42.47;27.25;;;;;;;;;;5117930;28;20197;-54
2021/04/02 13:06:53;;;;;;;52.10;30.45;;;;;;;;;;5105089;28;20228;-51
2021/04/02 13:09:20;;;;;;;46.15;32.08;;;;;;;;;;5096289;28;20202;-50
2021/04/02 13:11:55;;;;;;;49.63;31.58;;;;;;;;;;5086511;28;20230;-50
2021/04/02 13:14:36;;;;;;;47.92;34.25;;;;;;;;;;5096989;28;20271;-53
2021/04/02 13:17:07;;;;;;;46.63;31.48;;;;;;;;;;5102005;28;20247;-55
2021/04/02 13:19:34;;;;;;;45.13;30.67;;;;;;;;;;5116816;28;20193;-55
2021/04/02 13:25:08;;;;;;;44.65;27.80;;;;;;;;;;5114145;28;20231;-55
2021/04/02 13:27:35;;;;;;;42.75;29.05;;;;;;;;;;5116254;28;20217;-55
2021/04/02 13:30:17;;;;;;;43.75;28.85;;;;;;;;;;5116335;28;20200;-55
2021/04/02 13:32:45;;;;;;;41.95;28.92;;;;;;;;;;5117187;28;20288;-53
2021/04/02 13:35:17;;;;;;;45.00;32.20;;;;;;;;;;5116850;28;20201;-58
2021/04/02 13:37:58;;;;;;;44.55;31.13;;;;;;;;;;5098531;28;20371;-54
2021/04/02 13:40:26;;;;;;;52.90;33.45;;;;;;;;;;5116163;28;20211;-55
2021/04/02 13:43:02;;;;;;;44.88;30.10;;;;;;;;;;5116158;28;20585;-57
2021/04/02 13:45:38;;;;;;;42.88;29.20;;;;;;;;;;5116518;28;20211;-53
2021/04/02 13:48:08;;;;;;;48.25;29.58;;;;;;;;;;5116582;28;20209;-53
2021/04/02 13:50:35;;;;;;;44.63;33.50;;;;;;;;;;5115756;28;20352;-57
2021/04/02 13:56:11;;;;;;;36.13;24.98;;;;;;;;;;5095580;28;20192;-57
2021/04/02 13:58:39;;;;;;;27.13;21.40;;;;;;;;;;5093952;28;20239;-54
2021/04/02 14:01:06;;;;;;;31.30;21.98;;;;;;;;;;5095518;28;20209;-57
2021/04/02 14:03:32;;;;;;;37.55;21.02;;;;;;;;;;5088448;28;20258;-50
2021/04/02 14:05:59;;;;;;;23.17;19.40;;;;;;;;;;5076124;28;20214;-55
2021/04/02 14:08:26;;;;;;;25.73;17.60;;;;;;;;;;5096525;28;20197;-55
2021/04/02 14:13:58;;;;;;;26.08;17.88;;;;;;;;;;5094908;28;20328;-56
2021/04/02 14:16:24;;;;;;;24.42;18.25;;;;;;;;;;5095687;28;20194;-53
2021/04/02 14:19:19;;;;;;;30.20;19.40;;;;;;;;;;5094361;28;20186;-56
2021/04/02 14:21:49;;;;;;;29.02;18.92;;;;;;;;;;5095069;28;20221;-51
2021/04/02 14:24:19;;;;;;;27.38;18.42;;;;;;;;;;5095496;28;20210;-57
2021/04/02 14:26:52;;;;;;;23.40;19.27;;;;;;;;;;5094987;28;20209;-55
2021/04/02 14:29:21;;;;;;;28.65;18.67;;;;;;;;;;5095372;28;20193;-52
2021/04/02 14:31:53;;;;;;;22.40;17.15;;;;;;;;;;5095263;28;20253;-54
2021/04/02 14:34:27;;;;;;;21.17;16.30;;;;;;;;;;5092487;28;20223;-51
2021/04/02 14:36:54;;;;;;;19.67;15.27;;;;;;;;;;5094629;28;20236;-58
2021/04/02 14:39:21;;;;;;;25.25;17.73;;;;;;;;;;5094665;28;20225;-57
2021/04/02 14:42:00;;;;;;;22.95;17.67;;;;;;;;;;5095538;28;20234;-54
2021/04/02 14:44:29;;;;;;;18.05;16.05;;;;;;;;;;5094534;28;20240;-57
2021/04/02 14:47:01;;;;;;;26.95;15.40;;;;;;;;;;5093888;28;20198;-52
2021/04/02 14:49:46;;;;;;;21.38;16.67;;;;;;;;;;5092598;28;20230;-58
2021/04/02 14:52:13;;;;;;;18.55;14.50;;;;;;;;;;5080880;28;20248;-58
2021/04/02 14:54:46;;;;;;;16.77;13.68;;;;;;;;;;5090099;28;20201;-56
2021/04/02 14:57:25;;;;;;;19.50;15.98;;;;;;;;;;5105817;28;20312;-55
2021/04/02 14:59:55;;;;;;;18.15;15.77;;;;;;;;;;5117498;28;20224;-55
2021/04/02 15:02:30;;;;;;;25.85;14.60;;;;;;;;;;5119959;28;20209;-58
2021/04/02 15:04:57;;;;;;;22.80;16.38;;;;;;;;;;5119798;28;20203;-58
2021/04/02 15:07:37;;;;;;;15.48;13.40;;;;;;;;;;5119934;28;20232;-55
2021/04/02 15:13:09;;;;;;;21.77;15.63;;;;;;;;;;5106913;28;20244;-55
2021/04/02 15:15:38;;;;;;;23.90;15.50;;;;;;;;;;5119545;28;20232;-59
2021/04/02 15:18:11;;;;;;;16.17;14.45;;;;;;;;;;5108106;28;20200;-59
2021/04/02 15:20:38;;;;;;;15.20;11.32;;;;;;;;;;5119383;28;20200;-53
2021/04/02 15:23:06;;;;;;;20.50;12.25;;;;;;;;;;5119591;28;20197;-55